createdAt,value
2022-08-22T00:00:20.649Z,98061.76
2022-08-22T00:02:42.244Z,98123.27
2022-08-22T00:02:43.675Z,98115.66
2022-08-22T00:02:49.198Z,98119.38
2022-08-22T00:06:02.095Z,98057.66
2022-08-22T00:08:39.963Z,98058.30
2022-08-22T00:11:07.348Z,98055.85
2022-08-22T00:14:01.157Z,98052.04
2022-08-22T00:16:57.775Z,98054.46
2022-08-22T00:19:56.204Z,98050.98
2022-08-22T00:22:33.777Z,98047.64
2022-08-22T00:25:12.444Z,98048.71
2022-08-22T00:28:00.558Z,98052.09
2022-08-22T00:30:30.394Z,98052.69
2022-08-22T00:33:02.622Z,98052.80
2022-08-22T00:35:36.555Z,98050.92
2022-08-22T00:38:10.421Z,98053.17
2022-08-22T00:40:57.008Z,98053.29
2022-08-22T00:43:39.774Z,98049.85
2022-08-22T00:46:38.190Z,98051.66
2022-08-22T00:49:05.595Z,98045.11
2022-08-22T00:51:54.491Z,98048.53
2022-08-22T00:54:38.543Z,98048.45
2022-08-22T00:57:24.564Z,98051.98
2022-08-22T01:00:14.209Z,98050.15
2022-08-22T01:02:57.089Z,98048.35
2022-08-22T01:05:46.983Z,98044.37
2022-08-22T01:08:42.468Z,98044.19
2022-08-22T01:11:31.852Z,98045.23
2022-08-22T01:14:34.876Z,98045.48
2022-08-22T01:17:06.506Z,98046.88
2022-08-22T01:19:52.852Z,98047.84
2022-08-22T01:22:51.082Z,98051.75
2022-08-22T01:25:33.974Z,98050.73
2022-08-22T01:28:27.470Z,98048.41
2022-08-22T01:31:25.696Z,98043.59
2022-08-22T01:34:23.784Z,98051.87
2022-08-22T01:36:52.375Z,98051.42
2022-08-22T01:39:38.721Z,98050.23
2022-08-22T01:42:20.375Z,98049.72
2022-08-22T01:44:48.939Z,98051.02
2022-08-22T01:47:23.515Z,98051.80
2022-08-22T01:49:56.141Z,98053.61
2022-08-22T01:52:36.298Z,98052.71
2022-08-22T01:55:09.487Z,98052.95
2022-08-22T01:58:02.311Z,98055.41
2022-08-22T02:00:35.262Z,98050.65
2022-08-22T02:03:26.199Z,98050.15
2022-08-22T02:06:00.033Z,98054.87
2022-08-22T02:08:31.706Z,98052.84
2022-08-22T02:11:09.190Z,98051.41
2022-08-22T02:13:57.921Z,98050.91
2022-08-22T02:16:35.462Z,98053.83
2022-08-22T02:19:19.471Z,98053.44
2022-08-22T02:21:47.075Z,98055.14
2022-08-22T02:24:34.946Z,98056.10
2022-08-22T02:27:13.290Z,98052.95
2022-08-22T02:30:00.305Z,98055.54
2022-08-22T02:32:36.522Z,98053.72
2022-08-22T02:35:10.627Z,98052.67
2022-08-22T02:37:55.595Z,98053.48
2022-08-22T02:40:31.031Z,98048.63
2022-08-22T02:43:10.109Z,98048.80
2022-08-22T02:45:53.827Z,98048.39
2022-08-22T02:48:36.562Z,98047.69
2022-08-22T02:51:17.723Z,98047.52
2022-08-22T02:54:16.973Z,98044.58
2022-08-22T02:56:49.038Z,98040.44
2022-08-22T02:59:17.580Z,98042.75
2022-08-22T03:01:46.696Z,98046.15
2022-08-22T03:04:37.409Z,98045.02
2022-08-22T03:07:10.003Z,98048.27
2022-08-22T03:10:00.141Z,98044.25
2022-08-22T03:12:46.635Z,98040.56
2022-08-22T03:15:26.114Z,98041.76
2022-08-22T03:18:57.950Z,98043.95
2022-08-22T03:21:32.134Z,98047.91
2022-08-22T03:24:11.141Z,98047.49
2022-08-22T03:26:39.672Z,98048.73
2022-08-22T03:29:13.523Z,98045.09
2022-08-22T03:32:00.607Z,98042.59
2022-08-22T03:34:27.454Z,98047.48
2022-08-22T03:37:07.630Z,98045.50
2022-08-22T03:39:45.912Z,98044.20
2022-08-22T03:42:22.392Z,98043.34
2022-08-22T03:45:06.262Z,98042.27
2022-08-22T03:48:05.599Z,98035.82
2022-08-22T03:50:46.426Z,98035.46
2022-08-22T03:53:45.555Z,98034.79
2022-08-22T03:56:20.476Z,98035.89
2022-08-22T03:59:10.122Z,98036.24
2022-08-22T04:01:52.895Z,98036.35
2022-08-22T04:04:35.773Z,98042.10
2022-08-22T04:07:33.452Z,98040.91
2022-08-22T04:10:23.635Z,98044.33
2022-08-22T04:12:59.070Z,98048.75
2022-08-22T04:15:52.900Z,98051.84
2022-08-22T04:18:36.307Z,98050.90
2022-08-22T04:21:22.537Z,98049.38
2022-08-22T04:24:05.693Z,98055.53
2022-08-22T04:26:48.490Z,98053.69
2022-08-22T04:29:27.687Z,98049.34
2022-08-22T04:32:15.373Z,98050.52
2022-08-22T04:34:46.952Z,98055.95
2022-08-22T04:37:20.649Z,98064.47
2022-08-22T04:39:55.718Z,98066.91
2022-08-22T04:42:47.987Z,98069.75
2022-08-22T04:45:22.562Z,98068.17
2022-08-22T04:47:54.283Z,98065.13
2022-08-22T04:50:29.153Z,98066.61
2022-08-22T04:53:03.917Z,98070.39
2022-08-22T04:55:43.878Z,98072.15
2022-08-22T04:58:38.298Z,98074.39
2022-08-22T05:01:07.195Z,98076.93
2022-08-22T05:03:44.380Z,98085.23
2022-08-22T05:06:15.766Z,98090.89
2022-08-22T05:08:46.297Z,98097.99
2022-08-22T05:11:24.166Z,98105.92
2022-08-22T05:14:01.209Z,98110.96
2022-08-22T05:16:34.286Z,98117.00
2022-08-22T05:19:07.597Z,98118.95
2022-08-22T05:21:40.634Z,98124.39
2022-08-22T05:24:14.271Z,98125.73
2022-08-22T05:26:46.781Z,98126.16
2022-08-22T05:29:19.725Z,98127.26
2022-08-22T05:31:52.102Z,98127.91
2022-08-22T05:34:24.020Z,98129.64
2022-08-22T05:36:57.820Z,98125.36
2022-08-22T05:39:28.090Z,98119.35
2022-08-22T05:41:57.304Z,98119.25
2022-08-22T05:44:28.280Z,98123.73
2022-08-22T05:47:02.689Z,98124.73
2022-08-22T05:49:38.920Z,98124.19
2022-08-22T05:52:08.912Z,98125.38
2022-08-22T05:54:49.227Z,98125.86
2022-08-22T05:57:19.986Z,98131.02
2022-08-22T05:59:53.963Z,98133.02
2022-08-22T06:02:28.608Z,98133.52
2022-08-22T06:05:01.132Z,98137.59
2022-08-22T06:07:35.150Z,98136.15
2022-08-22T06:10:15.577Z,98135.42
2022-08-22T06:12:52.296Z,98134.27
2022-08-22T06:15:27.568Z,98135.91
2022-08-22T06:18:10.538Z,98136.63
2022-08-22T06:20:48.119Z,98138.44
2022-08-22T06:23:23.168Z,98135.47
2022-08-22T06:25:52.146Z,98138.09
2022-08-22T06:28:23.391Z,98138.11
2022-08-22T06:30:54.287Z,98137.71
2022-08-22T06:33:28.707Z,98141.05
2022-08-22T06:36:21.152Z,98147.05
2022-08-22T06:39:10.357Z,98151.38
2022-08-22T06:41:42.994Z,98147.36
2022-08-22T06:44:16.316Z,98150.42
2022-08-22T06:46:46.681Z,98155.33
2022-08-22T06:49:15.013Z,98151.20
2022-08-22T06:51:43.217Z,98155.48
2022-08-22T06:54:18.048Z,98153.44
2022-08-22T06:56:49.181Z,98151.90
2022-08-22T06:59:21.153Z,98158.50
2022-08-22T07:02:03.739Z,98153.48
2022-08-22T07:04:31.436Z,98158.67
2022-08-22T07:07:01.345Z,98158.14
2022-08-22T07:09:35.914Z,98161.81
2022-08-22T07:12:14.598Z,98161.48
2022-08-22T07:14:44.771Z,98160.33
2022-08-22T07:17:21.810Z,98160.11
2022-08-22T07:19:55.834Z,98159.02
2022-08-22T07:22:30.933Z,98155.89
2022-08-22T07:25:03.291Z,98149.48
2022-08-22T07:27:48.918Z,98153.51
2022-08-22T07:30:27.262Z,98152.40
2022-08-22T07:33:18.962Z,98160.16
2022-08-22T07:35:56.482Z,98161.63
2022-08-22T07:38:24.258Z,98159.17
2022-08-22T07:41:08.234Z,98160.13
2022-08-22T07:43:38.717Z,98160.14
2022-08-22T07:46:27.569Z,98161.27
2022-08-22T07:49:09.158Z,98162.79
2022-08-22T07:51:46.608Z,98162.31
2022-08-22T07:54:22.131Z,98166.23
2022-08-22T07:57:07.164Z,98155.23
2022-08-22T07:59:38.392Z,98158.77
2022-08-22T08:02:11.523Z,98158.77
2022-08-22T08:04:40.839Z,98159.25
2022-08-22T08:07:12.275Z,98161.89
2022-08-22T08:09:46.080Z,98160.86
2022-08-22T08:12:16.030Z,98165.23
2022-08-22T08:14:50.221Z,98157.48
2022-08-22T08:17:31.428Z,98164.04
2022-08-22T08:20:03.732Z,98163.05
2022-08-22T08:22:32.445Z,98157.14
2022-08-22T08:25:01.185Z,98159.09
2022-08-22T08:28:00.742Z,98161.79
2022-08-22T08:30:54.598Z,98164.17
2022-08-22T08:33:26.721Z,98167.38
2022-08-22T08:36:16.984Z,98167.34
2022-08-22T08:39:12.536Z,98166.79
2022-08-22T08:41:59.037Z,98162.39
2022-08-22T08:44:46.111Z,98148.70
2022-08-22T08:47:30.194Z,98148.23
2022-08-22T08:50:12.982Z,98138.91
2022-08-22T08:53:09.665Z,98131.04
2022-08-22T08:55:59.270Z,98134.41
2022-08-22T08:58:44.271Z,98134.99
2022-08-22T09:01:29.712Z,98146.42
2022-08-22T09:04:28.576Z,98150.05
2022-08-22T09:07:01.579Z,98152.24
2022-08-22T09:09:54.234Z,98151.48
2022-08-22T09:12:43.407Z,98156.46
2022-08-22T09:15:31.633Z,98157.42
2022-08-22T09:18:28.049Z,98154.86
2022-08-22T09:21:11.001Z,98156.92
2022-08-22T09:23:42.694Z,98162.27
2022-08-22T09:26:19.745Z,98164.06
2022-08-22T09:29:16.725Z,98168.48
2022-08-22T09:32:00.329Z,98164.59
2022-08-22T09:34:38.143Z,98173.11
2022-08-22T09:37:22.722Z,98167.54
2022-08-22T09:40:17.326Z,98163.19
2022-08-22T09:43:03.509Z,98156.39
2022-08-22T09:45:50.104Z,98164.93
2022-08-22T09:48:31.866Z,98162.23
2022-08-22T09:51:13.634Z,98166.23
2022-08-22T09:54:05.988Z,98172.46
2022-08-22T09:56:39.772Z,98175.77
2022-08-22T09:59:15.731Z,98179.44
2022-08-22T10:01:53.993Z,98178.23
2022-08-22T10:04:53.639Z,98178.81
2022-08-22T10:07:28.167Z,98181.92
2022-08-22T10:09:55.983Z,98181.02
2022-08-22T10:12:35.138Z,98184.64
2022-08-22T10:15:09.887Z,98184.48
2022-08-22T10:17:43.533Z,98190.65
2022-08-22T10:20:25.131Z,98192.89
2022-08-22T10:23:08.413Z,98193.17
2022-08-22T10:25:56.154Z,98190.79
2022-08-22T10:28:47.286Z,98182.85
2022-08-22T10:31:34.963Z,98192.05
2022-08-22T10:34:28.740Z,98193.52
2022-08-22T10:37:17.255Z,98192.06
2022-08-22T10:40:14.801Z,98189.70
2022-08-22T10:42:49.924Z,98185.95
2022-08-22T10:45:35.632Z,98184.86
2022-08-22T10:48:09.033Z,98183.80
2022-08-22T10:50:47.025Z,98182.26
2022-08-22T10:53:46.428Z,98181.48
2022-08-22T10:56:21.491Z,98182.90
2022-08-22T10:58:56.491Z,98180.64
2022-08-22T11:01:37.617Z,98183.97
2022-08-22T11:04:29.706Z,98183.05
2022-08-22T11:07:21.883Z,98181.30
2022-08-22T11:09:58.859Z,98171.86
2022-08-22T11:12:41.706Z,98173.69
2022-08-22T11:15:26.200Z,98169.80
2022-08-22T11:18:14.814Z,98177.40
2022-08-22T11:20:50.379Z,98181.42
2022-08-22T11:23:23.761Z,98184.63
2022-08-22T11:26:06.365Z,98186.98
2022-08-22T11:29:13.245Z,98185.79
2022-08-22T11:32:05.752Z,98181.77
2022-08-22T11:34:47.986Z,98181.73
2022-08-22T11:37:42.431Z,98183.27
2022-08-22T11:40:28.003Z,98181.76
2022-08-22T11:43:16.301Z,98187.55
2022-08-22T11:45:57.172Z,98185.88
2022-08-22T11:48:39.253Z,98182.68
2022-08-22T11:51:15.654Z,98178.84
2022-08-22T11:53:51.188Z,98175.95
2022-08-22T11:56:45.237Z,98170.56
2022-08-22T11:59:28.176Z,98168.79
2022-08-22T12:02:01.471Z,98165.57
2022-08-22T12:04:48.203Z,98164.96
2022-08-22T12:07:27.916Z,98163.19
2022-08-22T12:10:05.135Z,98156.38
2022-08-22T12:12:52.314Z,98151.44
2022-08-22T12:15:33.192Z,98148.66
2022-08-22T12:18:17.905Z,98151.58
2022-08-22T12:20:50.028Z,98152.16
2022-08-22T12:23:22.046Z,98148.05
2022-08-22T12:26:40.662Z,98142.40
2022-08-22T12:29:45.081Z,98142.00
2022-08-22T12:32:35.802Z,98135.23
2022-08-22T12:35:20.061Z,98121.76
2022-08-22T12:38:28.121Z,98137.46
2022-08-22T12:41:28.289Z,98134.76
2022-08-22T12:44:37.173Z,98136.88
2022-08-22T12:47:35.354Z,98142.71
2022-08-22T12:50:26.729Z,98139.16
2022-08-22T12:53:21.395Z,98138.58
2022-08-22T12:55:57.605Z,98136.02
2022-08-22T12:58:41.293Z,98134.15
2022-08-22T13:01:11.215Z,98134.91
2022-08-22T13:03:47.585Z,98132.94
2022-08-22T13:06:37.945Z,98133.54
2022-08-22T13:09:19.668Z,98133.98
2022-08-22T13:11:53.662Z,98130.00
2022-08-22T13:14:28.369Z,98129.36
2022-08-22T13:16:59.666Z,98133.29
2022-08-22T13:19:32.386Z,98129.64
2022-08-22T13:22:10.079Z,98128.65
2022-08-22T13:24:51.702Z,98131.69
2022-08-22T13:27:26.029Z,98127.09
2022-08-22T13:30:02.286Z,98131.88
2022-08-22T13:32:39.330Z,98135.48
2022-08-22T13:35:23.863Z,98130.02
2022-08-22T13:37:58.611Z,98133.68
2022-08-22T13:40:30.948Z,98131.44
2022-08-22T13:43:05.786Z,98135.25
2022-08-22T13:45:35.949Z,98134.02
2022-08-22T13:48:11.413Z,98130.89
2022-08-22T13:51:14.561Z,98126.77
2022-08-22T13:53:49.917Z,98127.63
2022-08-22T13:56:39.177Z,98125.36
2022-08-22T13:59:49.640Z,98117.24
2022-08-22T14:02:34.187Z,98116.85
2022-08-22T14:05:08.929Z,98110.24
2022-08-22T14:07:46.089Z,98110.81
2022-08-22T14:10:29.491Z,98104.70
2022-08-22T14:12:56.897Z,98102.05
2022-08-22T14:15:32.249Z,98100.67
2022-08-22T14:18:16.920Z,98103.06
2022-08-22T14:20:47.691Z,98103.50
2022-08-22T14:23:27.037Z,98103.04
2022-08-22T14:25:55.418Z,98101.65
2022-08-22T14:28:28.927Z,98103.45
2022-08-22T14:31:02.663Z,98107.41
2022-08-22T14:33:40.094Z,98105.20
2022-08-22T14:36:18.036Z,98106.35
2022-08-22T14:38:51.813Z,98112.25
2022-08-22T14:41:56.078Z,98113.70
2022-08-22T14:44:33.402Z,98114.55
2022-08-22T14:47:04.329Z,98119.95
2022-08-22T14:50:00.158Z,98117.38
2022-08-22T14:52:38.630Z,98117.77
2022-08-22T14:55:15.878Z,98120.13
2022-08-22T14:57:50.601Z,98118.91
2022-08-22T15:00:28.700Z,98121.75
2022-08-22T15:03:14.034Z,98113.67
2022-08-22T15:05:49.519Z,98119.67
2022-08-22T15:08:24.308Z,98116.41
2022-08-22T15:11:17.958Z,98113.52
2022-08-22T15:14:03.013Z,98117.30
2022-08-22T15:16:42.012Z,98116.64
2022-08-22T15:19:41.310Z,98115.54
2022-08-22T15:22:08.876Z,98115.94
2022-08-22T15:24:45.263Z,98123.67
2022-08-22T15:27:19.387Z,98118.83
2022-08-22T15:29:52.730Z,98128.18
2022-08-22T15:32:22.332Z,98133.46
2022-08-22T15:34:52.322Z,98128.85
2022-08-22T15:37:20.065Z,98123.98
2022-08-22T15:40:08.481Z,98123.54
2022-08-22T15:42:45.576Z,98112.73
2022-08-22T15:45:37.797Z,98109.41
2022-08-22T15:48:10.678Z,98115.60
2022-08-22T15:50:54.950Z,98110.26
2022-08-22T15:53:26.667Z,98110.20
2022-08-22T15:56:19.816Z,98107.31
2022-08-22T15:58:53.134Z,98109.48
2022-08-22T16:01:24.398Z,98115.56
2022-08-22T16:04:03.317Z,98119.98
2022-08-22T16:06:46.705Z,98128.38
2022-08-22T16:09:30.181Z,98131.20
2022-08-22T16:12:00.857Z,98133.06
2022-08-22T16:14:36.089Z,98136.17
2022-08-22T16:17:08.240Z,98137.30
2022-08-22T16:19:35.935Z,98138.30
2022-08-22T16:22:07.685Z,98141.52
2022-08-22T16:24:57.233Z,98137.91
2022-08-22T16:27:26.570Z,98141.67
2022-08-22T16:30:07.663Z,98140.30
2022-08-22T16:32:35.300Z,98135.36
2022-08-22T16:35:02.149Z,98133.66
2022-08-22T16:37:47.438Z,98129.24
2022-08-22T16:40:21.163Z,98134.03
2022-08-22T16:43:08.247Z,98141.44
2022-08-22T16:45:40.788Z,98147.24
2022-08-22T16:48:24.040Z,98154.05
2022-08-22T16:51:10.000Z,98151.88
2022-08-22T16:53:38.466Z,98155.84
2022-08-22T16:56:20.189Z,98156.88
2022-08-22T16:59:23.514Z,98157.39
2022-08-22T17:02:07.015Z,98173.20
2022-08-22T17:04:37.953Z,98180.17
2022-08-22T17:07:11.723Z,98182.48
2022-08-22T17:10:03.214Z,98177.01
2022-08-22T17:12:54.283Z,98170.60
2022-08-22T17:15:25.052Z,98157.23
2022-08-22T17:17:56.983Z,98159.68
2022-08-22T17:20:39.618Z,98165.55
2022-08-22T17:23:25.622Z,98177.98
2022-08-22T17:26:07.824Z,98194.54
2022-08-22T17:28:56.377Z,98193.40
2022-08-22T17:31:54.579Z,98188.39
2022-08-22T17:34:32.835Z,98179.54
2022-08-22T17:37:06.607Z,98169.02
2022-08-22T17:39:38.571Z,98159.53
2022-08-22T17:42:21.613Z,98163.34
2022-08-22T17:45:07.995Z,98171.16
2022-08-22T17:47:55.271Z,98166.14
2022-08-22T17:50:32.505Z,98160.98
2022-08-22T17:53:07.425Z,98159.23
2022-08-22T17:55:55.132Z,98158.59
2022-08-22T17:58:37.519Z,98170.23
2022-08-22T18:01:20.315Z,98176.52
2022-08-22T18:03:58.247Z,98182.98
2022-08-22T18:06:33.005Z,98195.25
2022-08-22T18:09:20.616Z,98197.63
2022-08-22T18:11:52.250Z,98203.71
2022-08-22T18:14:30.068Z,98209.13
2022-08-22T18:16:59.549Z,98209.35
2022-08-22T18:19:42.380Z,98208.39
2022-08-22T18:22:20.096Z,98203.39
2022-08-22T18:24:57.791Z,98204.88
2022-08-22T18:27:34.118Z,98206.80
2022-08-22T18:30:14.651Z,98205.88
2022-08-22T18:32:57.540Z,98204.50
2022-08-22T18:35:31.411Z,98198.88
2022-08-22T18:37:59.040Z,98192.45
2022-08-22T18:40:33.690Z,98194.11
2022-08-22T18:43:18.449Z,98198.23
2022-08-22T18:45:47.020Z,98195.59
2022-08-22T18:48:29.853Z,98197.77
2022-08-22T18:51:24.665Z,98194.01
2022-08-22T18:54:12.640Z,98190.42
2022-08-22T18:56:57.783Z,98185.39
2022-08-22T18:59:40.575Z,98186.30
2022-08-22T19:02:24.444Z,98190.98
2022-08-22T19:05:07.433Z,98196.17
2022-08-22T19:07:36.102Z,98197.13
2022-08-22T19:10:04.674Z,98199.96
2022-08-22T19:13:03.483Z,98194.86
2022-08-22T19:15:48.578Z,98187.52
2022-08-22T19:18:38.307Z,98182.62
2022-08-22T19:21:37.747Z,98184.70
2022-08-22T19:24:09.487Z,98186.92
2022-08-22T19:26:43.120Z,98185.02
2022-08-22T19:29:17.690Z,98186.92
2022-08-22T19:31:50.797Z,98183.06
2022-08-22T19:34:36.055Z,98180.45
2022-08-22T19:37:32.256Z,98184.06
2022-08-22T19:40:07.504Z,98188.02
2022-08-22T19:42:38.339Z,98188.66
2022-08-22T19:45:17.117Z,98190.77
2022-08-22T19:47:55.470Z,98193.24
2022-08-22T19:50:23.757Z,98194.57
2022-08-22T19:52:55.069Z,98190.17
2022-08-22T19:55:38.215Z,98195.05
2022-08-22T19:58:32.802Z,98194.92
2022-08-22T20:01:10.762Z,98194.17
2022-08-22T20:03:53.489Z,98193.23
2022-08-22T20:06:42.951Z,98191.83
2022-08-22T20:09:25.671Z,98190.53
2022-08-22T20:12:03.921Z,98190.66
2022-08-22T20:14:34.978Z,98187.45
2022-08-22T20:17:09.285Z,98181.54
2022-08-22T20:22:39.659Z,98172.63
2022-08-22T20:25:41.772Z,98176.80
2022-08-22T20:28:08.690Z,98181.05
2022-08-22T20:30:47.075Z,98182.13
2022-08-22T20:33:24.327Z,98188.55
2022-08-22T20:35:55.905Z,98189.05
2022-08-22T20:38:32.477Z,98188.59
2022-08-22T20:41:20.957Z,98190.42
2022-08-22T20:43:53.184Z,98189.73
2022-08-22T20:46:35.221Z,98191.16
2022-08-22T20:49:02.900Z,98201.27
2022-08-22T20:51:32.384Z,98196.38
2022-08-22T20:54:10.176Z,98198.24
2022-08-22T20:56:53.022Z,98198.71
2022-08-22T20:59:39.456Z,98207.22
2022-08-22T21:02:20.888Z,98211.08
2022-08-22T21:04:57.082Z,98219.04
2022-08-22T21:07:28.933Z,98232.51
2022-08-22T21:10:20.269Z,98237.08
2022-08-22T21:13:07.469Z,98227.49
2022-08-22T21:15:38.848Z,98232.27
2022-08-22T21:18:06.738Z,98224.09
2022-08-22T21:20:37.230Z,98210.04
2022-08-22T21:23:10.741Z,98203.77
2022-08-22T21:25:57.296Z,98209.92
2022-08-22T21:28:28.257Z,98237.75
2022-08-22T21:30:55.814Z,98245.61
2022-08-22T21:33:25.463Z,98238.34
2022-08-22T21:35:59.419Z,98229.67
2022-08-22T21:38:27.231Z,98247.26
2022-08-22T21:41:01.311Z,98265.46
2022-08-22T21:43:33.743Z,98260.39
2022-08-22T21:46:00.909Z,98252.77
2022-08-22T21:48:44.238Z,98227.11
2022-08-22T21:51:26.899Z,98199.42
2022-08-22T21:54:22.277Z,98186.59
2022-08-22T21:56:51.189Z,98173.93
2022-08-22T21:59:21.389Z,98171.27
2022-08-22T22:01:52.345Z,98176.19
2022-08-22T22:04:19.176Z,98172.56
2022-08-22T22:06:45.994Z,98157.41
2022-08-22T22:09:15.284Z,98154.39
2022-08-22T22:11:42.313Z,98161.04
2022-08-22T22:14:09.455Z,98171.42
2022-08-22T22:16:36.351Z,98185.48
2022-08-22T22:19:07.261Z,98191.27
2022-08-22T22:21:34.430Z,98197.83
2022-08-22T22:24:01.667Z,98194.13
2022-08-22T22:26:28.912Z,98188.84
2022-08-22T22:28:58.734Z,98179.91
2022-08-22T22:31:26.085Z,98180.37
2022-08-22T22:33:53.004Z,98171.95
2022-08-22T22:36:24.152Z,98159.48
2022-08-22T22:38:52.713Z,98154.26
2022-08-22T22:41:23.505Z,98155.59
2022-08-22T22:43:50.656Z,98157.44
2022-08-22T22:46:17.534Z,98155.19
2022-08-22T22:48:44.447Z,98161.91
2022-08-22T22:51:12.460Z,98157.95
2022-08-22T22:53:44.229Z,98151.05
2022-08-22T22:56:14.089Z,98150.66
2022-08-22T22:58:43.526Z,98150.67
2022-08-22T23:01:15.410Z,98151.46
2022-08-22T23:03:43.420Z,98148.43
2022-08-22T23:06:14.751Z,98155.09
2022-08-22T23:08:42.414Z,98154.21
2022-08-22T23:11:12.970Z,98154.09
2022-08-22T23:13:43.064Z,98157.96
2022-08-22T23:16:14.346Z,98152.55
2022-08-22T23:18:42.487Z,98151.29
2022-08-22T23:21:12.578Z,98147.73
2022-08-22T23:23:39.508Z,98154.41
2022-08-22T23:26:06.537Z,98151.48
2022-08-22T23:28:33.537Z,98145.90
2022-08-22T23:31:16.516Z,98146.23
2022-08-22T23:33:44.765Z,98145.69
2022-08-22T23:36:16.645Z,98150.27
2022-08-22T23:38:45.615Z,98149.28
2022-08-22T23:41:15.415Z,98145.43
2022-08-22T23:43:46.578Z,98149.89
2022-08-22T23:46:16.957Z,98152.77
2022-08-22T23:48:44.342Z,98159.09
2022-08-22T23:51:13.211Z,98162.74
2022-08-22T23:53:41.726Z,98160.89
2022-08-22T23:56:21.831Z,98162.31
2022-08-22T23:58:50.636Z,98161.61
